Time;durP1;ratioP1;P1;durP2;ratioP2;P2;SDS_P1;SDS_P2;PMS_P1;PMS_P2;Temp;Humidity;BMP_temperature;BMP_pressure;BME280_temperature;BME280_humidity;BME280_pressure;Samples;Min_cycle;Max_cycle;Signal;HPM_P1;HPM_P2
2021/09/23 00:01:16;;;;;;;1.70;1.10;;;11.80;81.80;;;;;;4832211;29;20046;-84
2021/09/23 00:03:58;;;;;;;1.63;0.90;;;12.00;82.10;;;;;;4832717;29;20065;-83
2021/09/23 00:06:27;;;;;;;1.70;1.00;;;11.90;82.10;;;;;;4828296;29;20086;-82
2021/09/23 00:08:54;;;;;;;0.93;0.80;;;11.90;82.00;;;;;;4812633;29;20073;-83
2021/09/23 00:11:19;;;;;;;1.13;1.02;;;12.00;82.20;;;;;;4822914;29;20066;-84
2021/09/23 00:14:02;;;;;;;2.67;1.20;;;12.00;82.30;;;;;;4821015;29;20525;-84
2021/09/23 00:31:44;;;;;;;1.73;0.80;;;11.80;82.00;;;;;;4767197;30;20107;-86
2021/09/23 00:34:10;;;;;;;1.38;1.00;;;11.70;82.20;;;;;;4709307;30;20048;-83
2021/09/23 00:36:36;;;;;;;1.60;0.90;;;11.70;82.40;;;;;;4729186;30;20045;-84
2021/09/23 00:39:34;;;;;;;1.90;1.15;;;11.70;82.40;;;;;;4701617;30;20064;-91
2021/09/23 00:42:10;;;;;;;1.42;1.00;;;11.60;82.40;;;;;;4730495;30;20041;-86
2021/09/23 00:44:35;;;;;;;1.58;1.00;;;11.60;82.40;;;;;;4731945;30;20481;-85
2021/09/23 00:47:05;;;;;;;1.30;0.82;;;11.60;82.50;;;;;;4719885;30;20101;-85
2021/09/23 00:56:23;;;;;;;1.17;0.80;;;11.60;82.60;;;;;;4707943;30;20048;-85
2021/09/23 01:11:10;;;;;;;1.98;1.15;;;11.60;82.80;;;;;;4679557;30;20073;-89
2021/09/23 01:13:36;;;;;;;2.08;1.20;;;11.30;82.60;;;;;;4696231;30;20048;-86
2021/09/23 01:16:02;;;;;;;2.92;1.40;;;11.40;82.70;;;;;;4698945;30;20057;-86
2021/09/23 01:18:52;;;;;;;2.20;1.33;;;11.50;82.70;;;;;;4706776;30;20050;-87
2021/09/23 01:21:17;;;;;;;3.38;1.70;;;11.60;82.50;;;;;;4727911;30;20045;-82
2021/09/23 01:24:37;;;;;;;2.95;1.70;;;11.70;82.30;;;;;;4698625;30;20054;-88
2021/09/23 01:27:04;;;;;;;2.47;1.50;;;11.80;82.10;;;;;;4663899;30;20051;-83
2021/09/23 01:29:33;;;;;;;2.72;1.50;;;11.90;81.80;;;;;;4654524;30;20081;-83
2021/09/23 01:32:01;;;;;;;2.95;1.45;;;11.80;81.80;;;;;;4659687;30;20098;-83
2021/09/23 01:34:28;;;;;;;3.63;1.77;;;11.80;81.80;;;;;;4659546;30;20106;-82
2021/09/23 06:00:46;;;;;;;2.50;1.50;;;11.40;82.90;;;;;;4696272;30;20109;-87
2021/09/23 06:11:02;;;;;;;3.30;1.70;;;11.50;83.10;;;;;;4726226;30;20049;-85
2021/09/23 06:17:20;;;;;;;4.25;2.05;;;11.60;83.30;;;;;;4688099;30;20097;-89
2021/09/23 06:27:26;;;;;;;4.05;2.30;;;11.70;83.10;;;;;;4653578;30;20062;-86
2021/09/23 06:53:21;;;;;;;3.10;1.75;;;12.20;82.80;;;;;;5200434;23;20113;-89
2021/09/23 07:03:17;;;;;;;4.10;2.03;;;12.40;82.70;;;;;;4837149;29;20075;-86
2021/09/23 07:06:49;;;;;;;3.75;2.30;;;12.50;82.50;;;;;;4830652;29;20094;-87
2021/09/23 07:09:21;;;;;;;3.20;2.17;;;12.60;82.60;;;;;;4696643;30;20061;-86
2021/09/23 07:16:28;;;;;;;5.25;3.20;;;12.80;82.60;;;;;;4651714;30;20062;-85
2021/09/23 07:19:24;;;;;;;5.03;2.65;;;12.90;82.60;;;;;;4619777;31;20067;-86
2021/09/23 07:21:55;;;;;;;6.78;3.03;;;12.90;83.10;;;;;;4567274;31;20056;-86
2021/09/23 07:24:47;;;;;;;4.35;2.30;;;13.00;82.60;;;;;;4546496;31;20064;-87
2021/09/23 07:28:05;;;;;;;;;;;13.00;82.70;;;;;;4563037;31;20087;-85
2021/09/23 07:30:37;;;;;;;3.88;1.77;;;13.10;82.60;;;;;;4523146;31;19915;-82
2021/09/23 07:33:03;;;;;;;5.85;2.88;;;13.30;82.60;;;;;;4503750;31;20159;-82
2021/09/23 07:35:34;;;;;;;4.18;2.53;;;13.40;81.90;;;;;;4519227;31;20456;-85
2021/09/23 07:38:00;;;;;;;;;;;13.50;82.40;;;;;;4555723;31;20569;-80
2021/09/23 07:40:49;;;;;;;4.40;2.42;;;13.60;82.20;;;;;;4607163;31;19919;-82
2021/09/23 07:43:21;;;;;;;4.75;2.50;;;13.70;82.10;;;;;;4600752;31;20056;-82
2021/09/23 07:45:47;;;;;;;5.03;2.80;;;13.80;82.10;;;;;;4582719;31;20068;-80
2021/09/23 07:48:13;;;;;;;5.00;2.80;;;13.80;82.10;;;;;;4594810;31;20108;-80
2021/09/23 07:50:39;;;;;;;4.78;2.67;;;13.90;82.20;;;;;;4623164;30;20047;-81
2021/09/23 07:53:07;;;;;;;5.85;2.72;;;14.00;82.20;;;;;;4715096;30;20025;-82
2021/09/23 07:55:33;;;;;;;5.13;2.92;;;14.10;82.30;;;;;;4765042;30;20051;-80
2021/09/23 07:58:03;;;;;;;5.50;2.92;;;14.20;82.90;;;;;;4741848;30;20061;-80
2021/09/23 08:00:29;;;;;;;5.00;2.97;;;14.30;82.30;;;;;;4742931;30;20233;-82
2021/09/23 08:07:17;;;;;;;6.28;3.78;;;14.60;82.30;;;;;;4714792;30;20053;-83
2021/09/23 08:09:49;;;;;;;5.28;3.25;;;14.70;82.20;;;;;;4681970;30;20050;-84
2021/09/23 08:12:15;;;;;;;6.55;4.18;;;14.80;82.10;;;;;;4685715;30;20077;-82
2021/09/23 08:14:41;;;;;;;5.20;3.33;;;15.00;82.00;;;;;;4685804;30;20211;-82
2021/09/23 08:17:10;;;;;;;5.85;3.40;;;15.00;81.90;;;;;;4687954;30;20494;-83
2021/09/23 08:19:39;;;;;;;5.00;3.05;;;15.10;82.00;;;;;;4686435;30;20045;-84
2021/09/23 08:22:06;;;;;;;5.65;3.53;;;15.10;82.00;;;;;;4669722;30;20119;-82
2021/09/23 08:24:33;;;;;;;6.03;3.53;;;15.20;82.10;;;;;;4669917;30;20130;-83
2021/09/23 08:27:03;;;;;;;6.15;3.60;;;15.40;82.20;;;;;;4674694;30;20499;-84
2021/09/23 08:29:33;;;;;;;6.93;4.00;;;15.40;82.10;;;;;;4689198;30;20045;-84
2021/09/23 08:32:17;;;;;;;5.47;3.33;;;15.50;82.10;;;;;;4694014;30;20120;-82
2021/09/23 08:34:52;;;;;;;5.13;3.30;;;15.50;82.20;;;;;;4682106;30;20050;-83
2021/09/23 08:37:18;;;;;;;4.93;3.10;;;15.60;82.20;;;;;;4689344;30;20065;-84
2021/09/23 08:40:10;;;;;;;5.32;3.38;;;15.80;82.20;;;;;;4714555;30;20095;-84
2021/09/23 08:42:36;;;;;;;5.82;3.80;;;15.80;82.00;;;;;;4738828;29;20038;-81
2021/09/23 08:45:02;;;;;;;4.97;3.03;;;16.00;82.00;;;;;;4824832;29;20129;-82
2021/09/23 08:47:29;;;;;;;5.30;2.92;;;15.90;82.00;;;;;;4809866;29;20043;-81
2021/09/23 08:49:55;;;;;;;5.45;2.78;;;16.00;81.90;;;;;;4822593;29;20049;-81
2021/09/23 08:52:23;;;;;;;5.57;3.20;;;16.00;81.90;;;;;;4831815;29;20033;-82
2021/09/23 08:54:49;;;;;;;5.47;3.30;;;16.00;81.90;;;;;;4863030;29;20048;-85
2021/09/23 08:57:15;;;;;;;5.40;3.38;;;16.00;82.00;;;;;;4861968;29;20128;-83
2021/09/23 08:59:41;;;;;;;4.95;2.85;;;16.00;82.20;;;;;;4865504;29;20068;-80
2021/09/23 09:02:27;;;;;;;5.43;2.90;;;16.00;82.30;;;;;;4863122;29;20124;-79
2021/09/23 09:04:55;;;;;;;7.18;3.13;;;16.10;82.50;;;;;;4878916;29;20120;-82
2021/09/23 09:07:26;;;;;;;4.60;2.72;;;16.00;82.50;;;;;;4860111;29;20080;-81
2021/09/23 09:10:00;;;;;;;5.38;3.08;;;16.10;82.60;;;;;;4860854;29;20045;-84
2021/09/23 09:12:29;;;;;;;4.80;2.85;;;16.30;82.60;;;;;;4833839;29;20073;-82
2021/09/23 09:14:55;;;;;;;3.97;2.58;;;16.30;82.40;;;;;;4880161;29;20182;-81
2021/09/23 09:17:21;;;;;;;4.32;2.90;;;16.30;82.40;;;;;;4880157;29;20040;-80
2021/09/23 09:19:51;;;;;;;3.80;2.30;;;16.40;82.30;;;;;;4883263;29;20054;-80
2021/09/23 09:22:19;;;;;;;4.45;2.70;;;16.40;82.30;;;;;;4879617;29;20035;-81
2021/09/23 09:24:54;;;;;;;5.22;2.95;;;16.50;82.40;;;;;;4846040;29;20515;-86
2021/09/23 09:27:32;;;;;;;4.07;2.30;;;16.60;82.40;;;;;;4864339;29;20041;-82
2021/09/23 09:30:17;;;;;;;3.40;2.28;;;16.60;82.30;;;;;;4860711;29;20067;-82
2021/09/23 09:32:48;;;;;;;4.50;2.78;;;16.60;82.90;;;;;;4866245;29;20052;-82
2021/09/23 09:35:40;;;;;;;;;;;16.70;82.30;;;;;;4848239;29;20081;-84
2021/09/23 09:38:06;;;;;;;2.63;1.70;;;16.70;82.20;;;;;;4843626;29;19955;-85
2021/09/23 09:40:36;;;;;;;3.97;2.30;;;16.80;82.20;;;;;;4827822;29;20140;-83
2021/09/23 09:43:06;;;;;;;3.85;2.30;;;16.90;82.10;;;;;;4842472;29;20050;-83
2021/09/23 09:45:32;;;;;;;3.40;2.13;;;16.90;82.10;;;;;;4843105;29;20089;-82
2021/09/23 09:47:59;;;;;;;2.95;1.90;;;17.00;82.00;;;;;;4827786;29;20083;-83
2021/09/23 09:50:53;;;;;;;4.20;2.40;;;17.00;82.00;;;;;;4830382;29;20101;-84
2021/09/23 09:53:25;;;;;;;4.78;2.40;;;17.00;81.80;;;;;;4830828;29;20122;-86
2021/09/23 09:55:51;;;;;;;4.30;2.50;;;17.10;81.90;;;;;;4829231;29;20048;-84
2021/09/23 09:58:23;;;;;;;3.70;2.33;;;17.10;81.90;;;;;;4828558;29;20436;-80
2021/09/23 10:01:07;;;;;;;4.22;2.97;;;17.20;82.00;;;;;;4826592;29;20042;-84
2021/09/23 10:03:36;;;;;;;4.10;2.58;;;17.20;81.90;;;;;;4795335;29;20049;-83
2021/09/23 10:06:02;;;;;;;4.13;2.60;;;17.40;81.80;;;;;;4824472;29;20200;-83
2021/09/23 10:08:27;;;;;;;4.03;2.40;;;17.40;81.70;;;;;;4795308;29;20057;-83
2021/09/23 10:10:53;;;;;;;3.28;2.15;;;17.50;81.60;;;;;;4825473;29;20034;-83
2021/09/23 10:13:21;;;;;;;3.83;2.08;;;17.70;81.50;;;;;;4839499;29;20141;-83
2021/09/23 10:15:48;;;;;;;4.35;2.53;;;17.80;81.20;;;;;;4825228;29;20455;-84
2021/09/23 10:18:14;;;;;;;3.50;2.30;;;17.80;80.90;;;;;;4824491;29;20057;-80
2021/09/23 10:20:41;;;;;;;3.50;2.05;;;17.90;80.90;;;;;;4824844;29;20482;-80
2021/09/23 10:23:18;;;;;;;4.05;2.50;;;18.00;80.80;;;;;;4810492;29;20038;-83
2021/09/23 10:25:44;;;;;;;3.58;2.25;;;18.00;80.70;;;;;;4766790;30;20484;-84
2021/09/23 10:28:14;;;;;;;3.75;2.33;;;18.00;80.80;;;;;;4768638;30;20052;-85
2021/09/23 10:30:44;;;;;;;3.38;2.17;;;18.00;80.80;;;;;;4714633;30;20045;-85
2021/09/23 10:33:13;;;;;;;3.83;2.10;;;18.00;80.90;;;;;;4748763;30;20044;-86
2021/09/23 10:35:39;;;;;;;2.60;1.95;;;18.00;81.00;;;;;;4734584;30;20057;-83
2021/09/23 10:38:08;;;;;;;4.03;2.25;;;18.10;81.00;;;;;;4719109;30;20532;-80
2021/09/23 10:40:37;;;;;;;4.07;2.30;;;18.00;80.90;;;;;;4733868;30;20544;-81
2021/09/23 10:43:15;;;;;;;5.28;2.40;;;18.10;81.00;;;;;;4734214;30;20045;-81
2021/09/23 10:45:42;;;;;;;3.10;2.05;;;17.90;81.00;;;;;;4744140;30;20456;-81
2021/09/23 10:48:09;;;;;;;2.85;1.70;;;17.90;81.30;;;;;;4718926;30;20044;-80
2021/09/23 10:50:37;;;;;;;2.38;1.52;;;17.90;81.40;;;;;;4734167;30;20044;-81
2021/09/23 10:53:06;;;;;;;2.97;1.80;;;17.90;81.50;;;;;;4733663;30;20044;-81
2021/09/23 10:55:35;;;;;;;2.70;1.70;;;17.90;81.60;;;;;;4735905;29;20040;-81
2021/09/23 10:58:03;;;;;;;2.45;1.67;;;17.90;81.50;;;;;;4808815;29;20054;-80
2021/09/23 11:00:33;;;;;;;2.05;1.50;;;17.90;81.50;;;;;;4808635;29;20047;-81
2021/09/23 11:03:04;;;;;;;2.08;1.58;;;17.90;81.50;;;;;;4848327;29;20128;-81
2021/09/23 11:05:31;;;;;;;1.73;1.50;;;18.00;81.40;;;;;;4867515;29;20084;-82
2021/09/23 11:07:59;;;;;;;2.13;1.50;;;18.00;81.30;;;;;;4861547;29;20049;-81
2021/09/23 11:10:26;;;;;;;4.80;1.75;;;18.10;81.30;;;;;;4880967;29;20368;-81
2021/09/23 11:12:54;;;;;;;2.15;1.55;;;18.10;81.30;;;;;;4834877;29;20373;-79
2021/09/23 11:15:26;;;;;;;2.70;1.63;;;18.10;82.00;;;;;;4849109;29;20044;-81
2021/09/23 11:17:54;;;;;;;1.65;1.30;;;18.00;81.30;;;;;;4863783;29;20060;-79
2021/09/23 11:20:22;;;;;;;1.52;1.40;;;18.00;81.40;;;;;;4884247;29;20037;-82
2021/09/23 11:22:52;;;;;;;1.98;1.25;;;18.00;81.40;;;;;;4864409;29;20043;-81
2021/09/23 11:25:25;;;;;;;1.75;1.02;;;18.00;81.50;;;;;;4866709;29;20073;-87
2021/09/23 11:27:53;;;;;;;2.40;1.20;;;18.00;81.40;;;;;;4864941;29;20032;-81
2021/09/23 11:30:22;;;;;;;2.30;1.50;;;18.00;81.40;;;;;;4864001;29;20040;-82
2021/09/23 11:32:51;;;;;;;2.47;1.40;;;18.00;81.30;;;;;;4864585;29;20560;-81
2021/09/23 11:35:20;;;;;;;3.03;1.23;;;18.10;81.30;;;;;;4864476;29;20101;-81
2021/09/23 11:37:47;;;;;;;1.92;1.33;;;18.10;81.30;;;;;;4882105;29;20053;-80
2021/09/23 11:40:20;;;;;;;1.25;1.02;;;18.10;81.10;;;;;;4880030;29;20120;-78
2021/09/23 11:42:46;;;;;;;1.80;1.42;;;18.20;81.10;;;;;;4879920;29;20123;-78
2021/09/23 11:45:18;;;;;;;1.77;1.35;;;18.10;80.90;;;;;;4865581;29;20131;-79
2021/09/23 11:47:48;;;;;;;1.55;1.30;;;18.20;80.80;;;;;;4865176;29;20140;-80
2021/09/23 11:50:38;;;;;;;3.00;1.38;;;18.30;80.70;;;;;;4880272;29;20047;-80
2021/09/23 11:53:09;;;;;;;1.95;1.33;;;18.30;80.40;;;;;;4899235;29;20048;-82
2021/09/23 11:55:41;;;;;;;2.70;1.35;;;18.50;80.20;;;;;;4854893;29;20064;-82
2021/09/23 11:58:11;;;;;;;2.03;1.42;;;18.70;79.80;;;;;;4867183;29;20108;-82
2021/09/23 12:00:42;;;;;;;2.55;1.48;;;18.80;79.40;;;;;;4880627;29;20033;-79
2021/09/23 12:07:02;;;;;;;1.73;1.40;;;19.10;78.90;;;;;;4849913;29;20069;-92
2021/09/23 12:10:49;;;;;;;1.90;1.35;;;19.30;78.40;;;;;;4827335;29;20046;-86
2021/09/23 12:14:00;;;;;;;1.50;1.20;;;19.30;78.30;;;;;;4828729;29;20046;-85
2021/09/23 12:16:27;;;;;;;;;;;19.40;78.20;;;;;;4769452;30;20055;-84
2021/09/23 12:19:22;;;;;;;1.75;1.00;;;19.40;78.00;;;;;;4768321;30;19928;-86
2021/09/23 12:21:57;;;;;;;1.50;1.17;;;19.50;78.10;;;;;;4772315;30;20103;-85
2021/09/23 12:24:35;;;;;;;1.60;1.15;;;19.60;78.00;;;;;;4771026;30;20035;-84
2021/09/23 12:27:03;;;;;;;2.40;1.38;;;19.60;77.90;;;;;;4783499;29;20079;-81
2021/09/23 12:29:33;;;;;;;2.30;1.20;;;19.60;78.00;;;;;;4786529;29;20109;-85
2021/09/23 12:32:09;;;;;;;1.50;1.13;;;19.60;77.90;;;;;;4748928;30;20040;-82
2021/09/23 12:34:45;;;;;;;1.65;1.20;;;19.60;77.70;;;;;;4749260;30;20159;-84
2021/09/23 12:37:12;;;;;;;1.40;1.13;;;19.60;77.90;;;;;;4754809;30;20086;-83
2021/09/23 12:39:42;;;;;;;1.65;1.10;;;19.50;78.00;;;;;;4769988;30;20534;-84
2021/09/23 12:42:10;;;;;;;;;;;19.60;78.20;;;;;;4739801;30;20066;-84
2021/09/23 12:44:39;;;;;;;1.98;1.20;;;19.50;78.20;;;;;;4754096;30;20004;-83
2021/09/23 12:47:10;;;;;;;2.60;1.20;;;19.40;78.20;;;;;;4751907;29;20049;-83
2021/09/23 12:49:41;;;;;;;1.60;1.30;;;19.40;78.30;;;;;;4803958;29;20153;-82
2021/09/23 12:52:19;;;;;;;1.85;1.10;;;19.30;78.40;;;;;;4788825;29;20147;-83
2021/09/23 12:54:54;;;;;;;2.00;1.10;;;19.40;78.40;;;;;;4841067;29;20038;-83
2021/09/23 12:57:25;;;;;;;1.48;1.17;;;19.30;78.30;;;;;;4846224;29;20038;-82
2021/09/23 13:00:09;;;;;;;1.65;1.30;;;19.40;78.30;;;;;;4843227;29;20048;-80
2021/09/23 13:02:35;;;;;;;2.33;1.10;;;19.30;78.40;;;;;;4833607;29;20086;-80
2021/09/23 13:05:22;;;;;;;3.65;1.25;;;19.20;78.30;;;;;;4879970;29;20504;-82
2021/09/23 13:07:49;;;;;;;2.00;1.20;;;19.30;78.40;;;;;;4861459;29;20065;-82
2021/09/23 13:10:27;;;;;;;2.85;1.30;;;19.30;78.40;;;;;;4875417;29;20048;-81
2021/09/23 13:13:04;;;;;;;1.65;1.08;;;19.20;78.50;;;;;;4857881;29;20136;-81
2021/09/23 13:15:47;;;;;;;1.15;1.00;;;19.20;78.50;;;;;;4843423;29;20129;-82
2021/09/23 13:18:16;;;;;;;1.45;1.00;;;19.20;78.60;;;;;;4807198;29;20052;-82
2021/09/23 13:20:46;;;;;;;1.23;0.90;;;19.30;78.70;;;;;;4808437;29;20549;-82
2021/09/23 13:23:31;;;;;;;1.77;1.05;;;19.30;78.60;;;;;;4792723;29;20046;-79
2021/09/23 13:25:59;;;;;;;2.13;0.90;;;19.40;78.40;;;;;;4822593;29;20051;-78
2021/09/23 13:28:27;;;;;;;1.98;0.88;;;19.30;78.20;;;;;;4806087;29;20053;-78
2021/09/23 13:30:55;;;;;;;1.23;0.80;;;19.30;78.30;;;;;;4806093;29;20046;-78
2021/09/23 13:33:22;;;;;;;0.77;0.70;;;19.40;78.60;;;;;;4807877;29;20045;-79
2021/09/23 13:35:49;;;;;;;1.00;0.90;;;19.20;78.50;;;;;;4808344;29;20057;-80
2021/09/23 13:38:16;;;;;;;1.20;0.88;;;19.10;78.60;;;;;;4824595;29;20041;-79
2021/09/23 13:40:42;;;;;;;0.88;0.73;;;19.00;78.70;;;;;;4822104;29;20083;-79
2021/09/23 13:43:09;;;;;;;0.70;0.70;;;19.10;78.80;;;;;;4805567;29;20035;-78
2021/09/23 13:45:35;;;;;;;0.90;0.90;;;19.00;78.80;;;;;;4821148;29;20042;-79
2021/09/23 13:48:01;;;;;;;1.00;0.70;;;18.90;78.90;;;;;;4808080;29;20133;-78
2021/09/23 13:50:26;;;;;;;1.45;0.77;;;18.90;78.90;;;;;;4845908;29;20125;-82
2021/09/23 13:52:52;;;;;;;0.60;0.60;;;18.90;78.90;;;;;;4845628;29;20072;-81
2021/09/23 13:55:18;;;;;;;0.80;0.80;;;18.90;79.00;;;;;;4877831;29;20396;-82
2021/09/23 13:57:44;;;;;;;0.88;0.60;;;18.90;79.00;;;;;;4861129;29;20041;-81
2021/09/23 14:00:13;;;;;;;1.90;0.75;;;18.80;79.00;;;;;;4861407;29;20071;-82
2021/09/23 14:02:39;;;;;;;2.67;0.95;;;18.80;79.00;;;;;;4845597;29;20392;-81
2021/09/23 14:05:05;;;;;;;1.13;0.77;;;18.80;79.00;;;;;;4877965;29;20037;-80
2021/09/23 14:07:30;;;;;;;2.13;0.75;;;18.80;79.00;;;;;;4861210;29;20044;-79
2021/09/23 14:09:56;;;;;;;1.05;0.95;;;18.70;79.10;;;;;;4846307;29;20411;-82
2021/09/23 14:12:22;;;;;;;3.10;0.75;;;18.70;79.20;;;;;;4844698;29;20052;-82
2021/09/23 14:14:48;;;;;;;0.60;0.60;;;18.70;79.30;;;;;;4832333;29;20514;-82
2021/09/23 14:17:13;;;;;;;0.60;0.60;;;18.60;79.20;;;;;;4860659;29;20045;-82
2021/09/23 14:19:39;;;;;;;0.90;0.73;;;18.60;79.30;;;;;;4877751;29;20033;-82
2021/09/23 14:22:06;;;;;;;0.65;0.60;;;18.60;79.40;;;;;;4830275;29;20049;-81
2021/09/23 14:24:32;;;;;;;1.75;0.70;;;18.60;79.30;;;;;;4845355;29;20049;-82
2021/09/23 14:27:00;;;;;;;1.15;0.70;;;18.60;79.30;;;;;;4829945;29;20472;-82
2021/09/23 14:29:26;;;;;;;1.05;0.60;;;18.60;79.40;;;;;;4860531;29;20060;-82
2021/09/23 14:31:52;;;;;;;0.82;0.60;;;18.60;79.30;;;;;;4877280;29;20061;-81
2021/09/23 14:34:18;;;;;;;1.30;0.60;;;18.70;79.30;;;;;;4845658;29;20108;-81
2021/09/23 14:36:44;;;;;;;0.73;0.70;;;18.80;79.30;;;;;;4860759;29;20038;-81
2021/09/23 14:39:10;;;;;;;0.55;0.50;;;18.90;79.30;;;;;;4860251;29;20045;-81
2021/09/23 14:41:37;;;;;;;0.82;0.60;;;18.70;79.10;;;;;;4844590;29;20120;-80
2021/09/23 14:44:03;;;;;;;0.68;0.68;;;18.80;79.10;;;;;;4877565;29;20037;-82
2021/09/23 14:46:29;;;;;;;1.13;0.75;;;18.80;79.10;;;;;;4892281;29;20198;-80
2021/09/23 14:48:56;;;;;;;1.85;0.60;;;18.80;79.00;;;;;;4863592;29;20511;-81
2021/09/23 14:51:22;;;;;;;0.75;0.63;;;18.90;78.90;;;;;;4861202;29;20388;-81
2021/09/23 14:53:48;;;;;;;1.65;0.63;;;18.90;78.90;;;;;;4845324;29;20037;-81
2021/09/23 14:56:16;;;;;;;1.13;0.70;;;18.90;78.90;;;;;;4860494;29;20029;-80
2021/09/23 14:58:43;;;;;;;0.63;0.63;;;19.10;78.90;;;;;;4876642;29;20105;-82
2021/09/23 15:01:09;;;;;;;1.63;0.70;;;19.10;78.70;;;;;;4844619;29;20063;-82
2021/09/23 15:03:37;;;;;;;1.20;0.80;;;19.10;78.50;;;;;;4830007;29;20040;-81
2021/09/23 15:06:03;;;;;;;1.65;0.68;;;19.10;78.40;;;;;;4877096;29;20049;-81
2021/09/23 15:08:28;;;;;;;1.42;0.63;;;19.10;78.50;;;;;;4844759;29;20047;-81
2021/09/23 15:10:54;;;;;;;1.55;0.77;;;19.10;78.60;;;;;;4882006;29;20083;-80
2021/09/23 15:13:20;;;;;;;0.60;0.40;;;19.00;78.60;;;;;;4849183;29;20547;-81
2021/09/23 15:15:45;;;;;;;1.17;0.70;;;19.10;78.70;;;;;;4867578;29;20049;-80
2021/09/23 15:18:11;;;;;;;1.23;0.63;;;19.10;78.80;;;;;;4878388;29;20060;-82
2021/09/23 15:20:37;;;;;;;0.80;0.60;;;19.10;78.80;;;;;;4863212;29;20040;-82
2021/09/23 15:23:03;;;;;;;0.95;0.60;;;19.00;78.90;;;;;;4860903;29;20566;-81
2021/09/23 15:25:29;;;;;;;0.73;0.60;;;19.00;79.00;;;;;;4863369;29;20045;-80
2021/09/23 15:27:58;;;;;;;0.82;0.65;;;19.00;79.10;;;;;;4879451;29;20049;-81
2021/09/23 15:30:25;;;;;;;1.25;0.77;;;19.00;79.10;;;;;;4864170;29;20123;-80
2021/09/23 15:32:51;;;;;;;1.40;0.60;;;18.90;79.30;;;;;;4832400;29;20033;-80
2021/09/23 15:35:17;;;;;;;0.80;0.70;;;18.90;79.30;;;;;;4863459;29;20037;-82
2021/09/23 15:37:43;;;;;;;1.85;0.70;;;18.90;79.40;;;;;;4862735;29;20527;-80
2021/09/23 15:40:10;;;;;;;0.77;0.55;;;18.90;79.40;;;;;;4879607;29;20045;-82
2021/09/23 15:42:38;;;;;;;0.50;0.50;;;18.90;79.50;;;;;;4832457;29;20044;-80
2021/09/23 15:45:04;;;;;;;0.88;0.50;;;18.90;79.40;;;;;;4861359;29;20035;-81
2021/09/23 15:47:30;;;;;;;1.15;0.60;;;18.90;79.40;;;;;;4846992;29;20084;-80
2021/09/23 15:49:55;;;;;;;0.63;0.47;;;19.00;79.50;;;;;;4862474;29;20124;-81
2021/09/23 15:52:21;;;;;;;0.98;0.60;;;18.90;79.50;;;;;;4862642;29;20048;-79
2021/09/23 15:54:47;;;;;;;1.35;0.65;;;18.80;79.50;;;;;;4847341;29;20053;-80
2021/09/23 15:57:15;;;;;;;0.77;0.60;;;18.90;79.60;;;;;;4862947;29;20123;-81
2021/09/23 15:59:40;;;;;;;1.00;0.50;;;18.90;79.60;;;;;;4866871;29;20093;-81
2021/09/23 16:02:10;;;;;;;0.50;0.50;;;18.80;79.50;;;;;;4888800;29;20078;-84
2021/09/23 16:04:35;;;;;;;2.38;0.63;;;18.70;79.50;;;;;;4854378;29;20048;-84
2021/09/23 16:07:01;;;;;;;0.47;0.40;;;18.80;79.60;;;;;;4881551;29;21262;-85
2021/09/23 16:09:29;;;;;;;0.45;0.45;;;18.70;79.60;;;;;;4882785;29;20052;-83
2021/09/23 16:11:55;;;;;;;0.98;0.60;;;18.70;79.70;;;;;;4864201;29;20041;-84
2021/09/23 16:14:21;;;;;;;0.63;0.40;;;18.70;79.70;;;;;;4844917;29;20097;-84
2021/09/23 16:16:46;;;;;;;1.50;0.40;;;18.70;79.70;;;;;;4879151;29;20084;-84
2021/09/23 16:19:12;;;;;;;0.68;0.50;;;18.80;79.60;;;;;;4878921;29;20060;-83
2021/09/23 16:21:38;;;;;;;0.73;0.55;;;18.70;79.40;;;;;;4876240;29;20441;-84
2021/09/23 16:24:04;;;;;;;0.43;0.30;;;18.70;79.30;;;;;;4847471;29;20162;-84
2021/09/23 16:26:29;;;;;;;0.88;0.57;;;18.70;79.40;;;;;;4878893;29;20061;-83
2021/09/23 16:28:55;;;;;;;0.52;0.40;;;18.60;79.40;;;;;;4864806;29;20049;-84
2021/09/23 16:31:21;;;;;;;0.50;0.45;;;18.50;79.40;;;;;;4879680;29;20166;-84
2021/09/23 16:33:47;;;;;;;0.40;0.40;;;18.50;79.50;;;;;;4862660;29;20116;-83
2021/09/23 16:36:12;;;;;;;0.57;0.40;;;18.50;79.60;;;;;;4863803;29;20045;-83
2021/09/23 16:38:38;;;;;;;0.60;0.40;;;18.50;79.60;;;;;;4847909;29;20067;-83
2021/09/23 16:41:05;;;;;;;0.30;0.30;;;18.40;79.60;;;;;;4865399;29;20071;-83
2021/09/23 16:43:31;;;;;;;0.28;0.28;;;18.40;79.70;;;;;;4858075;29;20411;-83
2021/09/23 16:45:58;;;;;;;0.40;0.40;;;18.40;79.70;;;;;;4846786;29;20139;-83
2021/09/23 16:48:24;;;;;;;0.30;0.30;;;18.30;79.80;;;;;;4846620;29;20100;-84
2021/09/23 16:50:50;;;;;;;0.57;0.50;;;18.30;79.80;;;;;;4863507;29;20049;-84
2021/09/23 16:53:16;;;;;;;1.27;0.57;;;18.30;79.90;;;;;;4831477;29;20083;-78
2021/09/23 16:55:41;;;;;;;0.60;0.40;;;18.30;79.90;;;;;;4878372;29;20070;-79
2021/09/23 16:58:07;;;;;;;0.47;0.35;;;18.20;79.80;;;;;;4877062;29;20500;-78
2021/09/23 17:00:33;;;;;;;0.63;0.63;;;18.30;79.90;;;;;;4863784;29;20088;-78
2021/09/23 17:03:03;;;;;;;0.30;0.30;;;18.20;79.90;;;;;;4864526;29;20453;-78
2021/09/23 17:05:30;;;;;;;0.20;0.20;;;18.20;79.90;;;;;;4878740;29;20489;-78
2021/09/23 17:07:56;;;;;;;0.43;0.38;;;18.20;79.80;;;;;;4878782;29;20288;-79
2021/09/23 17:10:22;;;;;;;0.30;0.30;;;18.20;79.80;;;;;;4864315;29;20466;-78
2021/09/23 17:12:48;;;;;;;0.47;0.40;;;18.10;79.80;;;;;;4861933;29;20048;-79
2021/09/23 17:15:15;;;;;;;0.35;0.35;;;18.10;79.80;;;;;;4857970;29;20052;-78
2021/09/23 17:17:41;;;;;;;0.30;0.30;;;18.10;79.90;;;;;;4861465;29;20088;-77
2021/09/23 17:20:08;;;;;;;0.50;0.40;;;18.20;80.00;;;;;;4846570;29;20073;-79
2021/09/23 17:22:36;;;;;;;0.57;0.40;;;18.10;80.00;;;;;;4861573;29;20064;-78
2021/09/23 17:25:03;;;;;;;0.25;0.25;;;18.10;80.00;;;;;;4861528;29;20108;-78
2021/09/23 17:27:29;;;;;;;0.20;0.20;;;18.00;80.00;;;;;;4861795;29;20060;-78
2021/09/23 17:29:55;;;;;;;0.30;0.30;;;18.00;80.00;;;;;;4845613;29;20080;-78
2021/09/23 17:32:21;;;;;;;0.50;0.30;;;18.00;80.00;;;;;;4845827;29;20472;-79
2021/09/23 17:34:47;;;;;;;0.40;0.40;;;17.90;80.00;;;;;;4861490;29;20162;-80
2021/09/23 17:37:12;;;;;;;0.43;0.40;;;18.00;80.20;;;;;;4861506;29;20048;-79
2021/09/23 17:39:38;;;;;;;0.45;0.40;;;18.00;80.20;;;;;;4861084;29;20104;-79
2021/09/23 17:42:05;;;;;;;0.60;0.50;;;17.90;80.20;;;;;;4847504;29;20048;-82
2021/09/23 17:44:31;;;;;;;0.55;0.40;;;17.90;80.20;;;;;;4896436;29;20044;-79
2021/09/23 17:46:56;;;;;;;0.30;0.30;;;18.00;80.30;;;;;;4864680;29;20558;-79
2021/09/23 17:49:22;;;;;;;1.02;0.40;;;17.90;80.20;;;;;;4864317;29;20041;-80
2021/09/23 17:51:49;;;;;;;0.40;0.40;;;17.90;80.20;;;;;;4896865;29;20045;-79
2021/09/23 17:54:14;;;;;;;0.38;0.38;;;17.80;80.10;;;;;;4866200;29;20048;-80
2021/09/23 17:56:40;;;;;;;0.45;0.45;;;17.90;80.20;;;;;;4878946;29;20885;-82
2021/09/23 17:59:06;;;;;;;0.55;0.40;;;17.80;80.10;;;;;;4861668;29;20048;-79
2021/09/23 18:01:32;;;;;;;0.60;0.50;;;17.90;80.30;;;;;;4877827;29;20036;-79
2021/09/23 18:03:57;;;;;;;0.30;0.30;;;17.80;80.20;;;;;;4877997;29;20052;-79
2021/09/23 18:06:23;;;;;;;0.50;0.40;;;17.90;80.20;;;;;;4845386;29;20053;-79
2021/09/23 18:08:50;;;;;;;1.42;0.57;;;17.90;80.30;;;;;;4876292;29;20495;-79
2021/09/23 18:11:16;;;;;;;0.45;0.45;;;17.80;80.20;;;;;;4877207;29;20101;-79
2021/09/23 18:13:43;;;;;;;0.80;0.40;;;17.80;80.20;;;;;;4860452;29;20100;-79
2021/09/23 18:16:09;;;;;;;0.68;0.60;;;17.80;80.20;;;;;;4861045;29;20052;-79
2021/09/23 18:18:35;;;;;;;0.85;0.60;;;17.90;80.30;;;;;;4859818;29;20072;-79
2021/09/23 18:21:03;;;;;;;1.08;0.80;;;17.80;80.30;;;;;;4879241;29;20039;-78
2021/09/23 18:23:29;;;;;;;0.63;0.55;;;17.80;80.30;;;;;;4877565;29;20189;-78
2021/09/23 18:25:55;;;;;;;0.60;0.60;;;17.80;80.40;;;;;;4829933;29;20132;-78
2021/09/23 18:28:20;;;;;;;0.60;0.60;;;17.80;80.40;;;;;;4877161;29;20041;-79
2021/09/23 18:30:47;;;;;;;0.85;0.60;;;17.80;80.40;;;;;;4844920;29;20057;-78
2021/09/23 18:33:14;;;;;;;0.50;0.50;;;17.80;80.50;;;;;;4877294;29;20714;-79
2021/09/23 18:35:41;;;;;;;0.50;0.50;;;17.80;80.50;;;;;;4860355;29;20381;-80
2021/09/23 18:38:07;;;;;;;1.25;0.55;;;17.70;80.50;;;;;;4860720;29;20045;-78
2021/09/23 18:40:33;;;;;;;0.93;0.50;;;17.70;80.50;;;;;;4845332;29;20515;-78
2021/09/23 18:42:59;;;;;;;0.43;0.43;;;17.70;80.60;;;;;;4860218;29;20049;-78
2021/09/23 18:45:25;;;;;;;0.85;0.80;;;17.70;80.60;;;;;;4877485;29;20503;-77
2021/09/23 18:47:51;;;;;;;1.27;0.60;;;17.70;80.70;;;;;;4860632;29;20045;-77
2021/09/23 18:50:19;;;;;;;1.92;0.80;;;17.70;80.80;;;;;;4844964;29;20052;-77
2021/09/23 18:52:45;;;;;;;1.25;0.70;;;17.70;80.80;;;;;;4860033;29;20124;-77
2021/09/23 18:55:11;;;;;;;0.57;0.50;;;17.70;80.80;;;;;;4845195;29;20492;-77
2021/09/23 18:57:37;;;;;;;0.77;0.43;;;17.70;80.90;;;;;;4844884;29;20052;-77
2021/09/23 19:00:06;;;;;;;0.50;0.50;;;17.70;80.90;;;;;;4863295;29;20049;-77
2021/09/23 19:02:31;;;;;;;0.90;0.68;;;17.60;80.90;;;;;;4848174;29;20040;-77